2013 Sharp HospiceCare Benefit Regatta
Cortez Racing Association / Coronado Yacht Club | August 24, 2013

Pursuit (34 boats)

Race 1
Race Information: Start Date/Time = August 24, 2013 13:00:00, Length (NM) = 10
PosSail SkipperBoatClubRatingDiv.Finish TimePenalty Pts
127635Ralph Godkin TIME OUTCRA 198 5 15:10:45 /0.00 1
29John Harrop JusticeSDYC/CRA 48 2A 15:13:54 /0.00 2
3USA 33Phillip Infelise Mile High KlubSWYC 48 2A 15:15:52 /0.00 3
48Timothy Chin ABACUSSGYC 48 2A 15:16:11 /0.00 4
552447Ron and Bev Coalson FrenchBredCRA,CYC 18 3 15:16:12 /0.00 5
646447Carolyn/Sandra Sherman Sea MaidenSWYC 120 4 15:16:31 /0.00 6
746307Brad Alberts El SueƱoCRA/SWYC 18 3 15:17:03 /0.00 7
856194Michael/Kathy Roach POCO LOCOSWYC/CRA 129 4 15:17:13 /0.00 8
956221James Kirkpatrick Expresssion SessionCRA 54 3 15:18:49 /0.00 9
1077390Drew Niedringhaus Houn DawgSGYC/CRA 66 3 15:19:08 /0.00 10
1197628Joe Saad Fiasco IICRA 165 5 15:19:44 /0.00 11
1287268William Posner Blind SquirrelCRA 120 4 15:19:45 /0.00 12
1346177Eric Johnson KestrelCRA 210 5 15:21:32 /0.00 13
1477422Keith Ericson OlyCRA 96 4 15:24:46 /0.00 14
1546485David Cattle BlackadderCRA 129 4 15:25:54 /0.00 15
1651392David Tarson ExcaliburSGYC 54 3 15:26:09 /0.00 16
1722208Kjeld Hestehave VelosSDYC -24 1 15:27:18 /0.00 17
1897662mike Dore decoycra sdyc 203 6 15:27:48 /0.00 18
1987175Mark Mallaby BoomerangCRA 105 4 15:28:42 /0.00 19
2056360Mike Whittemore MelokiaCorYC 81 3 15:29:01 /0.00 20
2147142David Cloyd Lady MaxSDYC 45 3 15:29:22 /0.00 21
2297467van huughes PaladinCCYC 108 4 15:29:29 /0.00 22
2377963Paul Mayeski SchocktailCRA 192 5 15:29:43 /0.00 23
24101Andrew Picel USA 101CRA 78 2B 15:30:37 /0.00 24
2515799Don Laverty DistractionSWYC 120 4 15:30:52 /0.00 25
2656403Peter Blake Rio Del MarSWYC 153 5 15:32:52 /0.00 26
2756858William Mason BRONCONYCSD/CRA 203 6 15:43:19 /0.00 27
2887471David Flint Isle RunCoronado Yacht Club 152 6 15:44:11 /0.00 28
291101Kent Griffin Ripplecra 126 4 15:54:00 /0.00 29
3052760Robert Madruga WindsomeCRA 94 6 15:56:00 /0.00 30
3114scot tempesta sock puppetsdyc 66 2B NO TIME BFD-DNE/0.00% 35
321130mark clements BrigadoonSGYC/CRA/CVYC 174 5 NO TIME DNF/0.00 35
3397518Walter Devine FreebirdSilver Gate Y C 156 5 15:30:38 OCS/0.00 35
347020Robert " Bo " Kopaniasz SorcererSDYC 81 3 15:29:14 OCS/0.00 35

Race Information: Start Date/Time = August 24, 2013 13:00:00, Length (NM) = 10
Principal Race Officer: Colleen Cooke

Information is final.


Registration Problems or Questions? Visit our Support Desk | View Our Privacy Policy
Powered by Regatta Network® | Online Sailing Event Registration and Management Services.
© 2020 Regatta Network, Inc. All Rights Reserved. Regatta Network is a registered Trademark of Regatta Network Inc.
Powered by Regatta NetworkPowered by Regatta Network